sensor_id;sensor_type;location;lat;lon;timestamp;P1;durP1;ratioP1;P2;durP2;ratioP2
72301;SDS011;60235;52.234;5.186;2023-08-07T00:00:04;8.63;;;1.55;;
72301;SDS011;60235;52.234;5.186;2023-08-07T00:02:30;8.93;;;1.50;;
72301;SDS011;60235;52.234;5.186;2023-08-07T00:04:56;11.70;;;2.08;;
72301;SDS011;60235;52.234;5.186;2023-08-07T00:07:22;7.97;;;1.40;;
72301;SDS011;60235;52.234;5.186;2023-08-07T00:09:50;9.75;;;1.75;;
72301;SDS011;60235;52.234;5.186;2023-08-07T00:12:16;8.95;;;1.60;;
72301;SDS011;60235;52.234;5.186;2023-08-07T00:14:42;8.55;;;1.55;;
72301;SDS011;60235;52.234;5.186;2023-08-07T00:17:08;11.85;;;1.65;;
72301;SDS011;60235;52.234;5.186;2023-08-07T00:19:34;9.73;;;1.95;;
72301;SDS011;60235;52.234;5.186;2023-08-07T00:22:00;12.98;;;1.98;;
72301;SDS011;60235;52.234;5.186;2023-08-07T00:24:26;10.75;;;1.80;;
72301;SDS011;60235;52.234;5.186;2023-08-07T00:26:52;9.45;;;1.80;;
72301;SDS011;60235;52.234;5.186;2023-08-07T00:29:18;7.97;;;1.42;;
72301;SDS011;60235;52.234;5.186;2023-08-07T00:31:44;12.75;;;1.98;;
72301;SDS011;60235;52.234;5.186;2023-08-07T00:34:10;8.38;;;1.77;;
72301;SDS011;60235;52.234;5.186;2023-08-07T00:36:36;14.27;;;2.13;;
72301;SDS011;60235;52.234;5.186;2023-08-07T00:39:02;9.88;;;1.85;;
72301;SDS011;60235;52.234;5.186;2023-08-07T00:41:28;11.10;;;1.92;;
72301;SDS011;60235;52.234;5.186;2023-08-07T00:43:54;9.18;;;1.38;;
72301;SDS011;60235;52.234;5.186;2023-08-07T00:46:20;12.25;;;2.45;;
72301;SDS011;60235;52.234;5.186;2023-08-07T00:48:47;9.48;;;1.60;;
72301;SDS011;60235;52.234;5.186;2023-08-07T00:51:13;9.38;;;2.00;;
72301;SDS011;60235;52.234;5.186;2023-08-07T00:53:39;13.50;;;2.30;;
72301;SDS011;60235;52.234;5.186;2023-08-07T00:56:05;10.73;;;1.95;;
72301;SDS011;60235;52.234;5.186;2023-08-07T00:58:32;13.07;;;2.35;;
72301;SDS011;60235;52.234;5.186;2023-08-07T01:00:58;12.20;;;2.00;;
72301;SDS011;60235;52.234;5.186;2023-08-07T01:03:24;12.00;;;2.10;;
72301;SDS011;60235;52.234;5.186;2023-08-07T01:05:50;11.00;;;2.25;;
72301;SDS011;60235;52.234;5.186;2023-08-07T01:08:16;11.45;;;2.53;;
72301;SDS011;60235;52.234;5.186;2023-08-07T01:10:46;17.55;;;2.22;;
72301;SDS011;60235;52.234;5.186;2023-08-07T01:13:28;11.18;;;2.13;;
72301;SDS011;60235;52.234;5.186;2023-08-07T01:15:55;13.77;;;2.25;;
72301;SDS011;60235;52.234;5.186;2023-08-07T01:18:22;16.00;;;2.67;;
72301;SDS011;60235;52.234;5.186;2023-08-07T01:20:48;14.27;;;2.20;;
72301;SDS011;60235;52.234;5.186;2023-08-07T01:23:14;12.30;;;2.17;;
72301;SDS011;60235;52.234;5.186;2023-08-07T01:25:39;11.52;;;2.30;;
72301;SDS011;60235;52.234;5.186;2023-08-07T01:28:08;15.77;;;1.92;;
72301;SDS011;60235;52.234;5.186;2023-08-07T01:30:36;8.65;;;1.73;;
72301;SDS011;60235;52.234;5.186;2023-08-07T01:35:33;7.60;;;1.80;;
72301;SDS011;60235;52.234;5.186;2023-08-07T01:38:00;13.55;;;2.50;;
72301;SDS011;60235;52.234;5.186;2023-08-07T01:40:27;9.98;;;1.83;;
72301;SDS011;60235;52.234;5.186;2023-08-07T01:42:53;10.10;;;2.10;;
72301;SDS011;60235;52.234;5.186;2023-08-07T01:45:29;12.70;;;2.40;;
72301;SDS011;60235;52.234;5.186;2023-08-07T01:47:55;12.38;;;2.67;;
72301;SDS011;60235;52.234;5.186;2023-08-07T01:50:22;16.23;;;2.78;;
72301;SDS011;60235;52.234;5.186;2023-08-07T01:52:48;10.05;;;1.92;;
72301;SDS011;60235;52.234;5.186;2023-08-07T01:55:15;11.30;;;1.90;;
72301;SDS011;60235;52.234;5.186;2023-08-07T01:57:41;8.48;;;1.90;;
72301;SDS011;60235;52.234;5.186;2023-08-07T02:00:07;11.82;;;2.45;;
72301;SDS011;60235;52.234;5.186;2023-08-07T02:02:34;8.10;;;1.92;;
72301;SDS011;60235;52.234;5.186;2023-08-07T02:05:00;12.13;;;2.20;;
72301;SDS011;60235;52.234;5.186;2023-08-07T02:07:26;10.23;;;1.90;;
72301;SDS011;60235;52.234;5.186;2023-08-07T02:09:52;13.98;;;2.20;;
72301;SDS011;60235;52.234;5.186;2023-08-07T02:12:18;10.88;;;2.00;;
72301;SDS011;60235;52.234;5.186;2023-08-07T02:14:44;11.40;;;2.33;;
72301;SDS011;60235;52.234;5.186;2023-08-07T02:17:10;9.40;;;2.42;;
72301;SDS011;60235;52.234;5.186;2023-08-07T02:19:36;11.00;;;2.08;;
72301;SDS011;60235;52.234;5.186;2023-08-07T02:22:03;10.40;;;1.90;;
72301;SDS011;60235;52.234;5.186;2023-08-07T02:24:29;14.90;;;1.90;;
72301;SDS011;60235;52.234;5.186;2023-08-07T02:26:55;13.50;;;2.10;;
72301;SDS011;60235;52.234;5.186;2023-08-07T02:29:21;13.65;;;2.10;;
72301;SDS011;60235;52.234;5.186;2023-08-07T02:31:47;12.80;;;2.42;;
72301;SDS011;60235;52.234;5.186;2023-08-07T02:34:13;12.23;;;2.00;;
72301;SDS011;60235;52.234;5.186;2023-08-07T02:36:39;10.52;;;2.10;;
72301;SDS011;60235;52.234;5.186;2023-08-07T02:39:05;14.60;;;2.05;;
72301;SDS011;60235;52.234;5.186;2023-08-07T02:41:31;8.60;;;1.80;;
72301;SDS011;60235;52.234;5.186;2023-08-07T02:43:57;12.45;;;2.25;;
72301;SDS011;60235;52.234;5.186;2023-08-07T02:46:23;11.15;;;1.80;;
72301;SDS011;60235;52.234;5.186;2023-08-07T02:48:49;11.95;;;1.65;;
72301;SDS011;60235;52.234;5.186;2023-08-07T02:51:15;8.90;;;1.73;;
72301;SDS011;60235;52.234;5.186;2023-08-07T02:53:41;15.25;;;2.25;;
72301;SDS011;60235;52.234;5.186;2023-08-07T02:56:07;8.80;;;1.58;;
72301;SDS011;60235;52.234;5.186;2023-08-07T02:58:33;14.60;;;2.00;;
72301;SDS011;60235;52.234;5.186;2023-08-07T03:01:03;10.52;;;1.85;;
72301;SDS011;60235;52.234;5.186;2023-08-07T03:03:29;8.52;;;1.75;;
72301;SDS011;60235;52.234;5.186;2023-08-07T03:05:55;12.25;;;1.67;;
72301;SDS011;60235;52.234;5.186;2023-08-07T03:08:21;8.50;;;1.45;;
72301;SDS011;60235;52.234;5.186;2023-08-07T03:10:54;7.32;;;1.33;;
72301;SDS011;60235;52.234;5.186;2023-08-07T03:13:20;6.32;;;1.30;;
72301;SDS011;60235;52.234;5.186;2023-08-07T03:15:46;8.80;;;1.23;;
72301;SDS011;60235;52.234;5.186;2023-08-07T03:18:15;6.75;;;1.38;;
72301;SDS011;60235;52.234;5.186;2023-08-07T03:20:41;6.90;;;1.25;;
72301;SDS011;60235;52.234;5.186;2023-08-07T03:23:08;7.57;;;1.30;;
72301;SDS011;60235;52.234;5.186;2023-08-07T03:25:34;9.27;;;1.90;;
72301;SDS011;60235;52.234;5.186;2023-08-07T03:28:00;11.13;;;1.55;;
72301;SDS011;60235;52.234;5.186;2023-08-07T03:30:26;9.75;;;1.58;;
72301;SDS011;60235;52.234;5.186;2023-08-07T03:32:52;7.72;;;1.30;;
72301;SDS011;60235;52.234;5.186;2023-08-07T03:35:18;8.38;;;1.58;;
72301;SDS011;60235;52.234;5.186;2023-08-07T03:37:44;7.50;;;1.70;;
72301;SDS011;60235;52.234;5.186;2023-08-07T03:40:11;9.05;;;1.45;;
72301;SDS011;60235;52.234;5.186;2023-08-07T03:42:37;8.23;;;1.42;;
72301;SDS011;60235;52.234;5.186;2023-08-07T03:45:03;9.38;;;2.00;;
72301;SDS011;60235;52.234;5.186;2023-08-07T03:47:29;9.63;;;1.80;;
72301;SDS011;60235;52.234;5.186;2023-08-07T03:49:55;8.07;;;2.00;;
72301;SDS011;60235;52.234;5.186;2023-08-07T03:52:21;10.32;;;1.95;;
72301;SDS011;60235;52.234;5.186;2023-08-07T03:54:47;12.90;;;1.98;;
72301;SDS011;60235;52.234;5.186;2023-08-07T03:57:13;8.10;;;1.67;;
72301;SDS011;60235;52.234;5.186;2023-08-07T03:59:39;11.75;;;1.95;;
72301;SDS011;60235;52.234;5.186;2023-08-07T04:02:05;8.90;;;1.77;;
72301;SDS011;60235;52.234;5.186;2023-08-07T04:04:31;10.07;;;1.90;;
72301;SDS011;60235;52.234;5.186;2023-08-07T04:06:57;7.68;;;1.98;;
72301;SDS011;60235;52.234;5.186;2023-08-07T04:09:23;6.82;;;1.80;;
72301;SDS011;60235;52.234;5.186;2023-08-07T04:11:49;9.32;;;1.90;;
72301;SDS011;60235;52.234;5.186;2023-08-07T04:14:15;8.90;;;2.08;;
72301;SDS011;60235;52.234;5.186;2023-08-07T04:16:41;10.98;;;2.40;;
72301;SDS011;60235;52.234;5.186;2023-08-07T04:19:07;10.02;;;2.47;;
72301;SDS011;60235;52.234;5.186;2023-08-07T04:21:33;9.95;;;2.08;;
72301;SDS011;60235;52.234;5.186;2023-08-07T04:23:59;11.90;;;2.33;;
72301;SDS011;60235;52.234;5.186;2023-08-07T04:26:25;8.45;;;2.45;;
72301;SDS011;60235;52.234;5.186;2023-08-07T04:28:51;13.35;;;2.28;;
72301;SDS011;60235;52.234;5.186;2023-08-07T04:31:17;12.07;;;2.20;;
72301;SDS011;60235;52.234;5.186;2023-08-07T04:33:43;10.43;;;2.10;;
72301;SDS011;60235;52.234;5.186;2023-08-07T04:36:09;11.70;;;2.28;;
72301;SDS011;60235;52.234;5.186;2023-08-07T04:38:35;10.32;;;2.03;;
72301;SDS011;60235;52.234;5.186;2023-08-07T04:41:01;10.63;;;2.55;;
72301;SDS011;60235;52.234;5.186;2023-08-07T04:43:28;10.82;;;2.03;;
72301;SDS011;60235;52.234;5.186;2023-08-07T04:45:54;13.98;;;2.25;;
72301;SDS011;60235;52.234;5.186;2023-08-07T04:48:20;8.35;;;2.03;;
72301;SDS011;60235;52.234;5.186;2023-08-07T04:50:47;10.88;;;2.40;;
72301;SDS011;60235;52.234;5.186;2023-08-07T04:53:13;11.88;;;3.20;;
72301;SDS011;60235;52.234;5.186;2023-08-07T04:55:39;8.73;;;1.75;;
72301;SDS011;60235;52.234;5.186;2023-08-07T04:58:05;13.10;;;2.17;;
72301;SDS011;60235;52.234;5.186;2023-08-07T05:00:31;11.05;;;2.67;;
72301;SDS011;60235;52.234;5.186;2023-08-07T05:02:57;16.73;;;3.10;;
72301;SDS011;60235;52.234;5.186;2023-08-07T05:05:23;13.65;;;2.00;;
72301;SDS011;60235;52.234;5.186;2023-08-07T05:07:49;9.68;;;1.95;;
72301;SDS011;60235;52.234;5.186;2023-08-07T05:10:15;8.57;;;1.98;;
72301;SDS011;60235;52.234;5.186;2023-08-07T05:12:41;10.07;;;1.95;;
72301;SDS011;60235;52.234;5.186;2023-08-07T05:15:07;10.50;;;1.90;;
72301;SDS011;60235;52.234;5.186;2023-08-07T05:17:34;10.50;;;1.90;;
72301;SDS011;60235;52.234;5.186;2023-08-07T05:20:00;9.85;;;2.22;;
72301;SDS011;60235;52.234;5.186;2023-08-07T05:22:26;10.52;;;2.38;;
72301;SDS011;60235;52.234;5.186;2023-08-07T05:24:52;13.40;;;2.08;;
72301;SDS011;60235;52.234;5.186;2023-08-07T05:27:18;10.75;;;2.20;;
72301;SDS011;60235;52.234;5.186;2023-08-07T05:29:44;11.43;;;2.33;;
72301;SDS011;60235;52.234;5.186;2023-08-07T05:32:13;12.70;;;2.03;;
72301;SDS011;60235;52.234;5.186;2023-08-07T05:34:40;13.43;;;2.40;;
72301;SDS011;60235;52.234;5.186;2023-08-07T05:37:06;15.90;;;2.38;;
72301;SDS011;60235;52.234;5.186;2023-08-07T05:39:33;16.52;;;2.33;;
72301;SDS011;60235;52.234;5.186;2023-08-07T05:41:59;11.02;;;2.03;;
72301;SDS011;60235;52.234;5.186;2023-08-07T05:44:25;8.30;;;2.08;;
72301;SDS011;60235;52.234;5.186;2023-08-07T05:46:51;11.65;;;1.85;;
72301;SDS011;60235;52.234;5.186;2023-08-07T05:49:17;10.70;;;2.80;;
72301;SDS011;60235;52.234;5.186;2023-08-07T05:51:43;11.02;;;2.22;;
72301;SDS011;60235;52.234;5.186;2023-08-07T05:54:09;25.17;;;2.33;;
72301;SDS011;60235;52.234;5.186;2023-08-07T05:56:37;10.00;;;2.28;;
72301;SDS011;60235;52.234;5.186;2023-08-07T05:59:03;11.88;;;2.95;;
72301;SDS011;60235;52.234;5.186;2023-08-07T06:01:29;12.35;;;2.38;;
72301;SDS011;60235;52.234;5.186;2023-08-07T06:03:56;11.27;;;2.42;;
72301;SDS011;60235;52.234;5.186;2023-08-07T06:06:22;15.85;;;2.47;;
72301;SDS011;60235;52.234;5.186;2023-08-07T06:08:48;13.45;;;2.60;;
72301;SDS011;60235;52.234;5.186;2023-08-07T06:11:14;12.57;;;3.15;;
72301;SDS011;60235;52.234;5.186;2023-08-07T06:13:40;12.13;;;2.17;;
72301;SDS011;60235;52.234;5.186;2023-08-07T06:16:06;11.25;;;3.28;;
72301;SDS011;60235;52.234;5.186;2023-08-07T06:18:32;10.63;;;1.98;;
72301;SDS011;60235;52.234;5.186;2023-08-07T06:20:59;15.73;;;2.45;;
72301;SDS011;60235;52.234;5.186;2023-08-07T06:23:25;14.52;;;2.80;;
72301;SDS011;60235;52.234;5.186;2023-08-07T06:25:51;16.50;;;2.60;;
72301;SDS011;60235;52.234;5.186;2023-08-07T06:28:17;16.27;;;2.75;;
72301;SDS011;60235;52.234;5.186;2023-08-07T06:30:43;13.43;;;2.85;;
72301;SDS011;60235;52.234;5.186;2023-08-07T06:33:09;13.93;;;2.45;;
72301;SDS011;60235;52.234;5.186;2023-08-07T06:35:38;14.18;;;2.72;;
72301;SDS011;60235;52.234;5.186;2023-08-07T06:38:05;11.88;;;2.50;;
72301;SDS011;60235;52.234;5.186;2023-08-07T06:40:31;13.32;;;2.60;;
72301;SDS011;60235;52.234;5.186;2023-08-07T06:42:57;14.25;;;2.63;;
72301;SDS011;60235;52.234;5.186;2023-08-07T06:45:23;13.13;;;2.63;;
72301;SDS011;60235;52.234;5.186;2023-08-07T06:47:49;11.23;;;2.15;;
72301;SDS011;60235;52.234;5.186;2023-08-07T06:50:15;11.43;;;2.40;;
72301;SDS011;60235;52.234;5.186;2023-08-07T06:52:41;8.82;;;2.53;;
72301;SDS011;60235;52.234;5.186;2023-08-07T06:55:07;11.43;;;3.00;;
72301;SDS011;60235;52.234;5.186;2023-08-07T06:57:33;11.00;;;2.53;;
72301;SDS011;60235;52.234;5.186;2023-08-07T06:59:59;14.90;;;2.67;;
72301;SDS011;60235;52.234;5.186;2023-08-07T07:02:25;9.23;;;2.20;;
72301;SDS011;60235;52.234;5.186;2023-08-07T07:04:51;12.52;;;2.47;;
72301;SDS011;60235;52.234;5.186;2023-08-07T07:07:17;12.85;;;2.50;;
72301;SDS011;60235;52.234;5.186;2023-08-07T07:09:43;12.05;;;3.00;;
72301;SDS011;60235;52.234;5.186;2023-08-07T07:12:09;12.90;;;2.67;;
72301;SDS011;60235;52.234;5.186;2023-08-07T07:14:35;11.25;;;2.75;;
72301;SDS011;60235;52.234;5.186;2023-08-07T07:17:01;11.13;;;2.28;;
72301;SDS011;60235;52.234;5.186;2023-08-07T07:19:27;12.30;;;2.33;;
72301;SDS011;60235;52.234;5.186;2023-08-07T07:21:53;14.80;;;2.60;;
72301;SDS011;60235;52.234;5.186;2023-08-07T07:24:19;13.30;;;2.55;;
72301;SDS011;60235;52.234;5.186;2023-08-07T07:26:45;11.50;;;2.50;;
72301;SDS011;60235;52.234;5.186;2023-08-07T07:29:11;12.73;;;2.53;;
72301;SDS011;60235;52.234;5.186;2023-08-07T07:31:37;9.23;;;2.40;;
72301;SDS011;60235;52.234;5.186;2023-08-07T07:34:03;13.30;;;2.53;;
72301;SDS011;60235;52.234;5.186;2023-08-07T07:36:29;10.13;;;2.40;;
72301;SDS011;60235;52.234;5.186;2023-08-07T07:38:55;14.27;;;2.50;;
72301;SDS011;60235;52.234;5.186;2023-08-07T07:41:21;10.65;;;2.20;;
72301;SDS011;60235;52.234;5.186;2023-08-07T07:43:49;9.02;;;2.42;;
72301;SDS011;60235;52.234;5.186;2023-08-07T07:46:15;12.35;;;2.95;;
72301;SDS011;60235;52.234;5.186;2023-08-07T07:48:41;10.18;;;2.70;;
72301;SDS011;60235;52.234;5.186;2023-08-07T07:51:07;17.88;;;2.78;;
72301;SDS011;60235;52.234;5.186;2023-08-07T07:53:33;10.85;;;2.58;;
72301;SDS011;60235;52.234;5.186;2023-08-07T07:55:59;10.15;;;2.22;;
72301;SDS011;60235;52.234;5.186;2023-08-07T07:58:26;13.38;;;2.53;;
72301;SDS011;60235;52.234;5.186;2023-08-07T08:00:52;11.63;;;2.78;;
72301;SDS011;60235;52.234;5.186;2023-08-07T08:03:19;10.10;;;2.42;;
72301;SDS011;60235;52.234;5.186;2023-08-07T08:05:46;10.30;;;2.40;;
72301;SDS011;60235;52.234;5.186;2023-08-07T08:08:12;10.00;;;2.00;;
72301;SDS011;60235;52.234;5.186;2023-08-07T08:10:38;15.27;;;2.60;;
72301;SDS011;60235;52.234;5.186;2023-08-07T08:13:04;12.18;;;2.50;;
72301;SDS011;60235;52.234;5.186;2023-08-07T08:15:30;13.88;;;2.70;;
72301;SDS011;60235;52.234;5.186;2023-08-07T08:17:56;8.13;;;2.20;;
72301;SDS011;60235;52.234;5.186;2023-08-07T08:20:22;6.88;;;1.83;;
72301;SDS011;60235;52.234;5.186;2023-08-07T08:22:48;14.18;;;2.70;;
72301;SDS011;60235;52.234;5.186;2023-08-07T08:25:14;11.82;;;1.90;;
72301;SDS011;60235;52.234;5.186;2023-08-07T08:27:42;9.82;;;2.17;;
72301;SDS011;60235;52.234;5.186;2023-08-07T08:30:08;9.32;;;2.10;;
72301;SDS011;60235;52.234;5.186;2023-08-07T08:32:35;14.82;;;2.22;;
72301;SDS011;60235;52.234;5.186;2023-08-07T08:35:00;12.82;;;2.13;;
72301;SDS011;60235;52.234;5.186;2023-08-07T08:37:27;10.93;;;2.45;;
72301;SDS011;60235;52.234;5.186;2023-08-07T08:39:54;9.75;;;2.33;;
72301;SDS011;60235;52.234;5.186;2023-08-07T08:42:20;11.52;;;2.42;;
72301;SDS011;60235;52.234;5.186;2023-08-07T08:44:48;11.07;;;2.25;;
72301;SDS011;60235;52.234;5.186;2023-08-07T08:47:17;9.82;;;2.22;;
72301;SDS011;60235;52.234;5.186;2023-08-07T08:49:47;10.32;;;2.28;;
72301;SDS011;60235;52.234;5.186;2023-08-07T08:52:15;11.93;;;1.98;;
72301;SDS011;60235;52.234;5.186;2023-08-07T08:54:42;8.20;;;1.70;;
72301;SDS011;60235;52.234;5.186;2023-08-07T08:57:08;11.68;;;2.25;;
72301;SDS011;60235;52.234;5.186;2023-08-07T08:59:35;13.05;;;2.20;;
72301;SDS011;60235;52.234;5.186;2023-08-07T09:02:01;10.20;;;2.40;;
72301;SDS011;60235;52.234;5.186;2023-08-07T09:04:27;17.45;;;2.47;;
72301;SDS011;60235;52.234;5.186;2023-08-07T09:06:53;8.75;;;1.80;;
72301;SDS011;60235;52.234;5.186;2023-08-07T09:09:20;10.73;;;2.10;;
72301;SDS011;60235;52.234;5.186;2023-08-07T09:11:46;8.80;;;1.92;;
72301;SDS011;60235;52.234;5.186;2023-08-07T09:14:15;12.13;;;2.42;;
72301;SDS011;60235;52.234;5.186;2023-08-07T09:16:41;10.30;;;2.00;;
72301;SDS011;60235;52.234;5.186;2023-08-07T09:19:08;15.95;;;2.50;;
72301;SDS011;60235;52.234;5.186;2023-08-07T09:21:34;11.02;;;3.13;;
72301;SDS011;60235;52.234;5.186;2023-08-07T09:24:00;13.88;;;2.25;;
72301;SDS011;60235;52.234;5.186;2023-08-07T09:26:26;11.38;;;1.95;;
72301;SDS011;60235;52.234;5.186;2023-08-07T09:28:52;8.45;;;1.98;;
72301;SDS011;60235;52.234;5.186;2023-08-07T09:31:19;10.73;;;2.10;;
72301;SDS011;60235;52.234;5.186;2023-08-07T09:33:46;8.57;;;2.28;;
72301;SDS011;60235;52.234;5.186;2023-08-07T09:36:13;9.02;;;2.60;;
72301;SDS011;60235;52.234;5.186;2023-08-07T09:38:39;10.68;;;2.13;;
72301;SDS011;60235;52.234;5.186;2023-08-07T09:41:05;7.80;;;1.98;;
72301;SDS011;60235;52.234;5.186;2023-08-07T09:43:34;6.90;;;1.77;;
72301;SDS011;60235;52.234;5.186;2023-08-07T09:46:01;7.88;;;2.17;;
72301;SDS011;60235;52.234;5.186;2023-08-07T09:48:28;12.45;;;2.65;;
72301;SDS011;60235;52.234;5.186;2023-08-07T09:50:54;9.05;;;2.13;;
72301;SDS011;60235;52.234;5.186;2023-08-07T09:53:27;11.32;;;2.35;;
72301;SDS011;60235;52.234;5.186;2023-08-07T09:55:53;11.80;;;2.28;;
72301;SDS011;60235;52.234;5.186;2023-08-07T09:58:20;9.05;;;2.17;;
72301;SDS011;60235;52.234;5.186;2023-08-07T10:00:46;12.20;;;2.20;;
72301;SDS011;60235;52.234;5.186;2023-08-07T10:03:15;7.38;;;1.77;;
72301;SDS011;60235;52.234;5.186;2023-08-07T10:05:44;9.80;;;2.05;;
72301;SDS011;60235;52.234;5.186;2023-08-07T10:08:10;9.32;;;1.83;;
72301;SDS011;60235;52.234;5.186;2023-08-07T10:10:37;9.05;;;1.77;;
72301;SDS011;60235;52.234;5.186;2023-08-07T10:13:03;12.95;;;2.50;;
72301;SDS011;60235;52.234;5.186;2023-08-07T10:15:30;16.70;;;2.25;;
72301;SDS011;60235;52.234;5.186;2023-08-07T10:17:57;10.38;;;2.22;;
72301;SDS011;60235;52.234;5.186;2023-08-07T10:20:27;7.57;;;1.55;;
72301;SDS011;60235;52.234;5.186;2023-08-07T10:22:53;12.93;;;2.15;;
72301;SDS011;60235;52.234;5.186;2023-08-07T10:25:22;11.27;;;2.80;;
72301;SDS011;60235;52.234;5.186;2023-08-07T10:27:50;11.82;;;1.77;;
72301;SDS011;60235;52.234;5.186;2023-08-07T10:30:18;9.77;;;1.77;;
72301;SDS011;60235;52.234;5.186;2023-08-07T10:32:44;9.45;;;2.08;;
72301;SDS011;60235;52.234;5.186;2023-08-07T10:38:10;8.38;;;1.58;;
72301;SDS011;60235;52.234;5.186;2023-08-07T10:41:12;11.98;;;2.35;;
72301;SDS011;60235;52.234;5.186;2023-08-07T10:43:29;9.20;;;2.15;;
72301;SDS011;60235;52.234;5.186;2023-08-07T10:46:03;8.70;;;2.08;;
72301;SDS011;60235;52.234;5.186;2023-08-07T10:48:29;12.18;;;2.10;;
72301;SDS011;60235;52.234;5.186;2023-08-07T10:53:31;8.27;;;1.90;;
72301;SDS011;60235;52.234;5.186;2023-08-07T10:55:57;7.60;;;1.60;;
72301;SDS011;60235;52.234;5.186;2023-08-07T10:58:24;8.95;;;1.65;;
72301;SDS011;60235;52.234;5.186;2023-08-07T11:01:40;9.63;;;1.60;;
72301;SDS011;60235;52.234;5.186;2023-08-07T11:03:37;10.05;;;1.77;;
72301;SDS011;60235;52.234;5.186;2023-08-07T11:06:06;8.02;;;1.85;;
72301;SDS011;60235;52.234;5.186;2023-08-07T11:08:31;11.95;;;2.30;;
72301;SDS011;60235;52.234;5.186;2023-08-07T11:10:57;9.05;;;2.10;;
72301;SDS011;60235;52.234;5.186;2023-08-07T11:13:29;8.43;;;2.38;;
72301;SDS011;60235;52.234;5.186;2023-08-07T11:15:56;13.00;;;2.10;;
72301;SDS011;60235;52.234;5.186;2023-08-07T11:18:22;12.10;;;2.10;;
72301;SDS011;60235;52.234;5.186;2023-08-07T11:20:48;12.00;;;2.38;;
72301;SDS011;60235;52.234;5.186;2023-08-07T11:23:14;10.48;;;2.00;;
72301;SDS011;60235;52.234;5.186;2023-08-07T11:25:41;9.75;;;1.70;;
72301;SDS011;60235;52.234;5.186;2023-08-07T11:28:07;9.77;;;2.10;;
72301;SDS011;60235;52.234;5.186;2023-08-07T11:30:33;11.25;;;2.00;;
72301;SDS011;60235;52.234;5.186;2023-08-07T11:33:00;12.05;;;2.55;;
72301;SDS011;60235;52.234;5.186;2023-08-07T11:35:27;10.80;;;2.00;;
72301;SDS011;60235;52.234;5.186;2023-08-07T11:37:53;8.13;;;1.98;;
72301;SDS011;60235;52.234;5.186;2023-08-07T11:40:20;9.90;;;1.90;;
72301;SDS011;60235;52.234;5.186;2023-08-07T11:42:46;10.95;;;1.83;;
72301;SDS011;60235;52.234;5.186;2023-08-07T11:45:12;7.97;;;2.05;;
72301;SDS011;60235;52.234;5.186;2023-08-07T11:47:38;8.55;;;1.88;;
72301;SDS011;60235;52.234;5.186;2023-08-07T11:50:05;10.98;;;1.90;;
72301;SDS011;60235;52.234;5.186;2023-08-07T11:52:31;4.60;;;1.45;;
72301;SDS011;60235;52.234;5.186;2023-08-07T11:54:57;8.38;;;1.50;;
72301;SDS011;60235;52.234;5.186;2023-08-07T11:57:24;7.07;;;1.48;;
72301;SDS011;60235;52.234;5.186;2023-08-07T11:59:50;5.80;;;1.30;;
72301;SDS011;60235;52.234;5.186;2023-08-07T12:02:16;4.22;;;1.27;;
72301;SDS011;60235;52.234;5.186;2023-08-07T12:04:43;8.13;;;1.70;;
72301;SDS011;60235;52.234;5.186;2023-08-07T12:07:09;10.32;;;1.80;;
72301;SDS011;60235;52.234;5.186;2023-08-07T12:09:36;3.55;;;1.10;;
72301;SDS011;60235;52.234;5.186;2023-08-07T12:12:03;6.82;;;1.58;;
72301;SDS011;60235;52.234;5.186;2023-08-07T12:14:29;5.47;;;1.15;;
72301;SDS011;60235;52.234;5.186;2023-08-07T12:16:55;8.93;;;1.50;;
72301;SDS011;60235;52.234;5.186;2023-08-07T12:19:21;7.68;;;1.45;;
72301;SDS011;60235;52.234;5.186;2023-08-07T12:21:47;6.38;;;1.20;;
72301;SDS011;60235;52.234;5.186;2023-08-07T12:24:13;6.65;;;1.40;;
72301;SDS011;60235;52.234;5.186;2023-08-07T12:26:39;5.93;;;1.40;;
72301;SDS011;60235;52.234;5.186;2023-08-07T12:29:05;6.88;;;1.50;;
72301;SDS011;60235;52.234;5.186;2023-08-07T12:31:31;5.72;;;1.40;;
72301;SDS011;60235;52.234;5.186;2023-08-07T12:33:57;6.78;;;1.30;;
72301;SDS011;60235;52.234;5.186;2023-08-07T12:36:23;5.82;;;1.58;;
72301;SDS011;60235;52.234;5.186;2023-08-07T12:38:49;6.10;;;1.20;;
72301;SDS011;60235;52.234;5.186;2023-08-07T12:41:15;8.88;;;1.55;;
72301;SDS011;60235;52.234;5.186;2023-08-07T12:43:41;8.65;;;1.52;;
72301;SDS011;60235;52.234;5.186;2023-08-07T12:46:07;5.55;;;1.30;;
72301;SDS011;60235;52.234;5.186;2023-08-07T12:48:33;6.43;;;1.67;;
72301;SDS011;60235;52.234;5.186;2023-08-07T12:50:59;5.38;;;1.30;;
72301;SDS011;60235;52.234;5.186;2023-08-07T12:53:25;9.57;;;1.60;;
72301;SDS011;60235;52.234;5.186;2023-08-07T12:55:51;7.47;;;1.42;;
72301;SDS011;60235;52.234;5.186;2023-08-07T12:58:17;6.28;;;1.58;;
72301;SDS011;60235;52.234;5.186;2023-08-07T13:00:46;5.85;;;1.13;;
72301;SDS011;60235;52.234;5.186;2023-08-07T13:03:12;6.68;;;1.42;;
72301;SDS011;60235;52.234;5.186;2023-08-07T13:05:38;6.60;;;1.25;;
72301;SDS011;60235;52.234;5.186;2023-08-07T13:08:04;9.73;;;1.75;;
72301;SDS011;60235;52.234;5.186;2023-08-07T13:10:30;7.40;;;1.52;;
72301;SDS011;60235;52.234;5.186;2023-08-07T13:12:56;5.55;;;1.10;;
72301;SDS011;60235;52.234;5.186;2023-08-07T13:15:23;7.28;;;1.50;;
72301;SDS011;60235;52.234;5.186;2023-08-07T13:17:50;6.05;;;1.42;;
72301;SDS011;60235;52.234;5.186;2023-08-07T13:20:16;8.50;;;1.90;;
72301;SDS011;60235;52.234;5.186;2023-08-07T13:22:43;4.75;;;1.17;;
72301;SDS011;60235;52.234;5.186;2023-08-07T13:25:10;7.53;;;1.38;;
72301;SDS011;60235;52.234;5.186;2023-08-07T13:27:36;11.45;;;1.80;;
72301;SDS011;60235;52.234;5.186;2023-08-07T13:30:03;6.50;;;1.40;;
72301;SDS011;60235;52.234;5.186;2023-08-07T13:32:29;6.75;;;1.20;;
72301;SDS011;60235;52.234;5.186;2023-08-07T13:34:55;5.90;;;1.30;;
72301;SDS011;60235;52.234;5.186;2023-08-07T13:37:21;7.88;;;1.48;;
72301;SDS011;60235;52.234;5.186;2023-08-07T13:39:47;8.75;;;1.60;;
72301;SDS011;60235;52.234;5.186;2023-08-07T13:42:15;9.85;;;1.50;;
72301;SDS011;60235;52.234;5.186;2023-08-07T13:44:41;8.35;;;1.45;;
72301;SDS011;60235;52.234;5.186;2023-08-07T13:47:07;7.47;;;1.30;;
72301;SDS011;60235;52.234;5.186;2023-08-07T13:49:35;8.70;;;1.48;;
72301;SDS011;60235;52.234;5.186;2023-08-07T13:52:01;6.50;;;1.45;;
72301;SDS011;60235;52.234;5.186;2023-08-07T13:54:27;7.88;;;1.38;;
72301;SDS011;60235;52.234;5.186;2023-08-07T13:56:53;8.10;;;1.30;;
72301;SDS011;60235;52.234;5.186;2023-08-07T13:59:19;5.32;;;1.17;;
72301;SDS011;60235;52.234;5.186;2023-08-07T14:01:45;6.38;;;1.83;;
72301;SDS011;60235;52.234;5.186;2023-08-07T14:04:11;8.52;;;1.30;;
72301;SDS011;60235;52.234;5.186;2023-08-07T14:06:39;6.30;;;1.23;;
72301;SDS011;60235;52.234;5.186;2023-08-07T14:09:07;6.45;;;1.33;;
72301;SDS011;60235;52.234;5.186;2023-08-07T14:11:34;5.20;;;1.35;;
72301;SDS011;60235;52.234;5.186;2023-08-07T14:14:00;5.35;;;1.20;;
72301;SDS011;60235;52.234;5.186;2023-08-07T14:16:26;5.38;;;1.17;;
72301;SDS011;60235;52.234;5.186;2023-08-07T14:18:52;8.38;;;1.25;;
72301;SDS011;60235;52.234;5.186;2023-08-07T14:21:18;6.45;;;1.40;;
72301;SDS011;60235;52.234;5.186;2023-08-07T14:23:44;7.38;;;1.80;;
72301;SDS011;60235;52.234;5.186;2023-08-07T14:26:12;6.05;;;1.50;;
72301;SDS011;60235;52.234;5.186;2023-08-07T14:28:38;6.88;;;1.50;;
72301;SDS011;60235;52.234;5.186;2023-08-07T14:31:07;4.82;;;1.58;;
72301;SDS011;60235;52.234;5.186;2023-08-07T14:33:34;7.05;;;1.73;;
72301;SDS011;60235;52.234;5.186;2023-08-07T14:36:00;6.30;;;1.60;;
72301;SDS011;60235;52.234;5.186;2023-08-07T14:38:26;7.15;;;1.50;;
72301;SDS011;60235;52.234;5.186;2023-08-07T14:40:53;5.10;;;1.50;;
72301;SDS011;60235;52.234;5.186;2023-08-07T14:43:19;5.90;;;1.50;;